sensor_id;sensor_type;location;lat;lon;timestamp;P1;durP1;ratioP1;P2;durP2;ratioP2
16922;SDS011;8578;50.938;13.556;2023-12-20T00:02:31;1.90;;;1.60;;
16922;SDS011;8578;50.938;13.556;2023-12-20T00:16:31;2.97;;;1.07;;
16922;SDS011;8578;50.938;13.556;2023-12-20T00:19:05;3.00;;;1.30;;
16922;SDS011;8578;50.938;13.556;2023-12-20T00:21:46;2.93;;;1.43;;
16922;SDS011;8578;50.938;13.556;2023-12-20T00:24:33;2.50;;;1.30;;
16922;SDS011;8578;50.938;13.556;2023-12-20T00:27:12;2.30;;;1.60;;
16922;SDS011;8578;50.938;13.556;2023-12-20T00:29:53;2.13;;;1.20;;
16922;SDS011;8578;50.938;13.556;2023-12-20T00:32:38;2.40;;;1.33;;
16922;SDS011;8578;50.938;13.556;2023-12-20T00:39:05;1.53;;;1.10;;
16922;SDS011;8578;50.938;13.556;2023-12-20T00:41:44;1.30;;;0.97;;
16922;SDS011;8578;50.938;13.556;2023-12-20T00:44:20;3.33;;;1.37;;
16922;SDS011;8578;50.938;13.556;2023-12-20T00:47:08;1.13;;;1.00;;
16922;SDS011;8578;50.938;13.556;2023-12-20T00:49:50;1.77;;;1.10;;
16922;SDS011;8578;50.938;13.556;2023-12-20T00:52:24;1.37;;;0.93;;
16922;SDS011;8578;50.938;13.556;2023-12-20T00:54:59;1.10;;;1.00;;
16922;SDS011;8578;50.938;13.556;2023-12-20T00:57:33;0.73;;;0.50;;
16922;SDS011;8578;50.938;13.556;2023-12-20T01:00:14;1.00;;;0.87;;
16922;SDS011;8578;50.938;13.556;2023-12-20T01:02:49;2.33;;;0.87;;
16922;SDS011;8578;50.938;13.556;2023-12-20T01:15:45;1.13;;;0.77;;
16922;SDS011;8578;50.938;13.556;2023-12-20T01:18:28;1.00;;;0.80;;
16922;SDS011;8578;50.938;13.556;2023-12-20T01:21:09;1.53;;;0.83;;
16922;SDS011;8578;50.938;13.556;2023-12-20T01:23:44;1.20;;;0.90;;
16922;SDS011;8578;50.938;13.556;2023-12-20T01:26:28;3.10;;;0.80;;
16922;SDS011;8578;50.938;13.556;2023-12-20T01:28:57;0.67;;;0.60;;
16922;SDS011;8578;50.938;13.556;2023-12-20T01:31:44;0.80;;;0.50;;
16922;SDS011;8578;50.938;13.556;2023-12-20T01:34:32;0.73;;;0.60;;
16922;SDS011;8578;50.938;13.556;2023-12-20T01:37:08;0.80;;;0.60;;
16922;SDS011;8578;50.938;13.556;2023-12-20T04:23:36;0.40;;;0.30;;
16922;SDS011;8578;50.938;13.556;2023-12-20T04:26:05;0.40;;;0.40;;
16922;SDS011;8578;50.938;13.556;2023-12-20T04:28:33;0.30;;;0.30;;
16922;SDS011;8578;50.938;13.556;2023-12-20T04:31:01;0.83;;;0.60;;
16922;SDS011;8578;50.938;13.556;2023-12-20T04:33:28;0.97;;;0.50;;
16922;SDS011;8578;50.938;13.556;2023-12-20T04:35:57;0.60;;;0.50;;
16922;SDS011;8578;50.938;13.556;2023-12-20T04:38:24;0.37;;;0.30;;
16922;SDS011;8578;50.938;13.556;2023-12-20T04:40:53;0.47;;;0.40;;
16922;SDS011;8578;50.938;13.556;2023-12-20T04:43:21;2.53;;;0.40;;
16922;SDS011;8578;50.938;13.556;2023-12-20T04:45:51;0.47;;;0.40;;
16922;SDS011;8578;50.938;13.556;2023-12-20T04:48:20;0.30;;;0.30;;
16922;SDS011;8578;50.938;13.556;2023-12-20T04:50:49;0.40;;;0.40;;
16922;SDS011;8578;50.938;13.556;2023-12-20T04:53:16;0.40;;;0.40;;
16922;SDS011;8578;50.938;13.556;2023-12-20T04:55:43;0.63;;;0.30;;
16922;SDS011;8578;50.938;13.556;2023-12-20T04:58:12;0.40;;;0.30;;
16922;SDS011;8578;50.938;13.556;2023-12-20T05:00:40;0.33;;;0.30;;
16922;SDS011;8578;50.938;13.556;2023-12-20T05:03:07;0.20;;;0.20;;
16922;SDS011;8578;50.938;13.556;2023-12-20T05:05:37;0.63;;;0.40;;
16922;SDS011;8578;50.938;13.556;2023-12-20T05:08:05;0.20;;;0.13;;
16922;SDS011;8578;50.938;13.556;2023-12-20T05:10:34;0.30;;;0.30;;
16922;SDS011;8578;50.938;13.556;2023-12-20T05:13:03;0.53;;;0.30;;
16922;SDS011;8578;50.938;13.556;2023-12-20T05:15:33;0.30;;;0.30;;
16922;SDS011;8578;50.938;13.556;2023-12-20T05:18:01;0.30;;;0.30;;
16922;SDS011;8578;50.938;13.556;2023-12-20T05:20:29;0.63;;;0.37;;
16922;SDS011;8578;50.938;13.556;2023-12-20T05:22:56;0.27;;;0.27;;
16922;SDS011;8578;50.938;13.556;2023-12-20T05:25:25;0.30;;;0.30;;
16922;SDS011;8578;50.938;13.556;2023-12-20T05:27:54;0.27;;;0.20;;
16922;SDS011;8578;50.938;13.556;2023-12-20T05:30:22;0.40;;;0.30;;
16922;SDS011;8578;50.938;13.556;2023-12-20T05:32:51;0.30;;;0.30;;
16922;SDS011;8578;50.938;13.556;2023-12-20T05:35:20;0.50;;;0.20;;
16922;SDS011;8578;50.938;13.556;2023-12-20T05:37:48;0.27;;;0.20;;
16922;SDS011;8578;50.938;13.556;2023-12-20T05:40:16;0.20;;;0.17;;
16922;SDS011;8578;50.938;13.556;2023-12-20T05:42:45;0.30;;;0.27;;
16922;SDS011;8578;50.938;13.556;2023-12-20T05:45:12;0.53;;;0.40;;
16922;SDS011;8578;50.938;13.556;2023-12-20T05:47:40;0.20;;;0.20;;
16922;SDS011;8578;50.938;13.556;2023-12-20T05:50:09;0.10;;;0.10;;
16922;SDS011;8578;50.938;13.556;2023-12-20T05:52:36;0.27;;;0.27;;
16922;SDS011;8578;50.938;13.556;2023-12-20T05:55:05;0.53;;;0.30;;
16922;SDS011;8578;50.938;13.556;2023-12-20T05:57:32;0.30;;;0.30;;
16922;SDS011;8578;50.938;13.556;2023-12-20T06:00:02;0.20;;;0.20;;
16922;SDS011;8578;50.938;13.556;2023-12-20T06:02:37;0.50;;;0.30;;
16922;SDS011;8578;50.938;13.556;2023-12-20T06:05:05;1.13;;;0.70;;
16922;SDS011;8578;50.938;13.556;2023-12-20T06:07:34;0.40;;;0.40;;
16922;SDS011;8578;50.938;13.556;2023-12-20T06:10:02;0.40;;;0.37;;
16922;SDS011;8578;50.938;13.556;2023-12-20T06:12:29;0.30;;;0.30;;
16922;SDS011;8578;50.938;13.556;2023-12-20T06:14:58;0.53;;;0.30;;
16922;SDS011;8578;50.938;13.556;2023-12-20T06:17:25;0.37;;;0.37;;
16922;SDS011;8578;50.938;13.556;2023-12-20T06:19:54;0.77;;;0.40;;
16922;SDS011;8578;50.938;13.556;2023-12-20T06:22:21;0.53;;;0.50;;
16922;SDS011;8578;50.938;13.556;2023-12-20T06:24:51;1.30;;;0.73;;
16922;SDS011;8578;50.938;13.556;2023-12-20T06:27:19;1.07;;;0.70;;
16922;SDS011;8578;50.938;13.556;2023-12-20T06:29:46;1.00;;;0.73;;
16922;SDS011;8578;50.938;13.556;2023-12-20T06:32:14;1.93;;;0.93;;
16922;SDS011;8578;50.938;13.556;2023-12-20T06:34:41;0.40;;;0.30;;
16922;SDS011;8578;50.938;13.556;2023-12-20T06:37:09;0.50;;;0.37;;
16922;SDS011;8578;50.938;13.556;2023-12-20T06:39:36;0.97;;;0.50;;
16922;SDS011;8578;50.938;13.556;2023-12-20T06:42:05;0.70;;;0.50;;
16922;SDS011;8578;50.938;13.556;2023-12-20T06:44:33;1.77;;;0.87;;
16922;SDS011;8578;50.938;13.556;2023-12-20T06:47:01;1.10;;;0.83;;
16922;SDS011;8578;50.938;13.556;2023-12-20T06:49:28;1.00;;;0.70;;
16922;SDS011;8578;50.938;13.556;2023-12-20T06:51:56;0.90;;;0.77;;
16922;SDS011;8578;50.938;13.556;2023-12-20T06:54:24;0.50;;;0.50;;
16922;SDS011;8578;50.938;13.556;2023-12-20T06:56:51;1.03;;;0.70;;
16922;SDS011;8578;50.938;13.556;2023-12-20T06:59:20;0.70;;;0.60;;
16922;SDS011;8578;50.938;13.556;2023-12-20T07:01:48;0.50;;;0.43;;
16922;SDS011;8578;50.938;13.556;2023-12-20T07:04:16;0.60;;;0.47;;
16922;SDS011;8578;50.938;13.556;2023-12-20T07:06:48;0.50;;;0.50;;
16922;SDS011;8578;50.938;13.556;2023-12-20T07:09:17;0.57;;;0.57;;
16922;SDS011;8578;50.938;13.556;2023-12-20T07:11:45;1.33;;;1.10;;
16922;SDS011;8578;50.938;13.556;2023-12-20T07:14:13;0.80;;;0.80;;
16922;SDS011;8578;50.938;13.556;2023-12-20T07:16:42;1.03;;;0.80;;
16922;SDS011;8578;50.938;13.556;2023-12-20T07:19:10;1.30;;;1.10;;
16922;SDS011;8578;50.938;13.556;2023-12-20T07:21:38;1.00;;;0.90;;
16922;SDS011;8578;50.938;13.556;2023-12-20T07:24:06;1.47;;;1.10;;
16922;SDS011;8578;50.938;13.556;2023-12-20T07:26:34;2.43;;;1.13;;
16922;SDS011;8578;50.938;13.556;2023-12-20T07:29:05;1.50;;;1.30;;
16922;SDS011;8578;50.938;13.556;2023-12-20T07:31:33;1.40;;;1.23;;
16922;SDS011;8578;50.938;13.556;2023-12-20T07:34:03;1.90;;;1.30;;
16922;SDS011;8578;50.938;13.556;2023-12-20T07:36:32;1.70;;;1.30;;
16922;SDS011;8578;50.938;13.556;2023-12-20T07:39:00;1.90;;;1.20;;
16922;SDS011;8578;50.938;13.556;2023-12-20T07:41:27;1.90;;;1.10;;
16922;SDS011;8578;50.938;13.556;2023-12-20T07:43:55;1.27;;;1.07;;
16922;SDS011;8578;50.938;13.556;2023-12-20T07:46:23;2.10;;;1.60;;
16922;SDS011;8578;50.938;13.556;2023-12-20T07:48:50;2.17;;;1.40;;
16922;SDS011;8578;50.938;13.556;2023-12-20T07:51:19;5.87;;;1.30;;
16922;SDS011;8578;50.938;13.556;2023-12-20T07:53:48;1.63;;;1.13;;
16922;SDS011;8578;50.938;13.556;2023-12-20T07:56:16;3.40;;;1.30;;
16922;SDS011;8578;50.938;13.556;2023-12-20T07:58:43;2.47;;;1.53;;
16922;SDS011;8578;50.938;13.556;2023-12-20T08:01:18;1.87;;;1.00;;
16922;SDS011;8578;50.938;13.556;2023-12-20T08:03:48;1.67;;;1.33;;
16922;SDS011;8578;50.938;13.556;2023-12-20T08:06:16;1.83;;;0.97;;
16922;SDS011;8578;50.938;13.556;2023-12-20T08:08:48;2.43;;;1.10;;
16922;SDS011;8578;50.938;13.556;2023-12-20T08:11:28;2.43;;;1.07;;
16922;SDS011;8578;50.938;13.556;2023-12-20T08:13:55;2.07;;;1.57;;
16922;SDS011;8578;50.938;13.556;2023-12-20T08:16:23;1.50;;;1.23;;
16922;SDS011;8578;50.938;13.556;2023-12-20T08:18:50;1.73;;;1.13;;
16922;SDS011;8578;50.938;13.556;2023-12-20T08:21:18;2.90;;;1.07;;
16922;SDS011;8578;50.938;13.556;2023-12-20T08:23:49;1.80;;;1.30;;
16922;SDS011;8578;50.938;13.556;2023-12-20T08:26:18;1.43;;;0.87;;
16922;SDS011;8578;50.938;13.556;2023-12-20T08:28:47;2.77;;;1.37;;
16922;SDS011;8578;50.938;13.556;2023-12-20T08:31:14;2.03;;;0.83;;
16922;SDS011;8578;50.938;13.556;2023-12-20T08:33:43;2.53;;;1.30;;
16922;SDS011;8578;50.938;13.556;2023-12-20T08:36:12;1.47;;;0.90;;
16922;SDS011;8578;50.938;13.556;2023-12-20T08:38:39;3.43;;;1.37;;
16922;SDS011;8578;50.938;13.556;2023-12-20T08:41:08;2.40;;;0.90;;
16922;SDS011;8578;50.938;13.556;2023-12-20T08:43:36;1.40;;;0.80;;
16922;SDS011;8578;50.938;13.556;2023-12-20T08:46:06;1.90;;;0.63;;
16922;SDS011;8578;50.938;13.556;2023-12-20T08:48:36;1.83;;;0.67;;
16922;SDS011;8578;50.938;13.556;2023-12-20T08:51:04;1.60;;;0.80;;
16922;SDS011;8578;50.938;13.556;2023-12-20T08:53:33;2.10;;;0.70;;
16922;SDS011;8578;50.938;13.556;2023-12-20T08:56:01;1.37;;;0.60;;
16922;SDS011;8578;50.938;13.556;2023-12-20T08:58:29;1.17;;;0.60;;
16922;SDS011;8578;50.938;13.556;2023-12-20T09:00:57;2.37;;;0.87;;
16922;SDS011;8578;50.938;13.556;2023-12-20T09:03:25;1.63;;;0.77;;
16922;SDS011;8578;50.938;13.556;2023-12-20T09:05:52;2.53;;;0.87;;
16922;SDS011;8578;50.938;13.556;2023-12-20T09:08:20;2.50;;;0.90;;
16922;SDS011;8578;50.938;13.556;2023-12-20T09:10:48;1.77;;;0.60;;
16922;SDS011;8578;50.938;13.556;2023-12-20T09:13:16;2.97;;;1.03;;
16922;SDS011;8578;50.938;13.556;2023-12-20T09:15:44;1.73;;;1.03;;
16922;SDS011;8578;50.938;13.556;2023-12-20T09:18:14;1.47;;;0.80;;
16922;SDS011;8578;50.938;13.556;2023-12-20T09:20:41;2.53;;;1.07;;
16922;SDS011;8578;50.938;13.556;2023-12-20T09:23:12;1.67;;;1.00;;
16922;SDS011;8578;50.938;13.556;2023-12-20T09:25:39;2.33;;;1.00;;
16922;SDS011;8578;50.938;13.556;2023-12-20T09:28:06;1.17;;;0.87;;
16922;SDS011;8578;50.938;13.556;2023-12-20T09:30:34;1.47;;;0.70;;
16922;SDS011;8578;50.938;13.556;2023-12-20T09:33:07;5.23;;;1.00;;
16922;SDS011;8578;50.938;13.556;2023-12-20T09:35:36;1.37;;;0.93;;
16922;SDS011;8578;50.938;13.556;2023-12-20T09:38:04;2.03;;;0.93;;
16922;SDS011;8578;50.938;13.556;2023-12-20T09:40:32;4.40;;;0.80;;
16922;SDS011;8578;50.938;13.556;2023-12-20T09:43:02;2.00;;;0.90;;
16922;SDS011;8578;50.938;13.556;2023-12-20T09:45:31;1.53;;;0.80;;
16922;SDS011;8578;50.938;13.556;2023-12-20T09:48:02;3.63;;;0.80;;
16922;SDS011;8578;50.938;13.556;2023-12-20T09:50:32;1.47;;;0.90;;
16922;SDS011;8578;50.938;13.556;2023-12-20T09:53:01;3.30;;;0.77;;
16922;SDS011;8578;50.938;13.556;2023-12-20T09:55:31;1.80;;;0.87;;
16922;SDS011;8578;50.938;13.556;2023-12-20T09:58:00;1.90;;;0.70;;
16922;SDS011;8578;50.938;13.556;2023-12-20T10:00:27;3.70;;;0.70;;
16922;SDS011;8578;50.938;13.556;2023-12-20T10:02:56;1.50;;;0.50;;
16922;SDS011;8578;50.938;13.556;2023-12-20T10:05:26;1.77;;;0.70;;
16922;SDS011;8578;50.938;13.556;2023-12-20T10:07:57;1.20;;;0.70;;
16922;SDS011;8578;50.938;13.556;2023-12-20T10:10:25;1.57;;;0.70;;
16922;SDS011;8578;50.938;13.556;2023-12-20T10:13:08;0.63;;;0.63;;
16922;SDS011;8578;50.938;13.556;2023-12-20T10:15:36;3.00;;;1.20;;
16922;SDS011;8578;50.938;13.556;2023-12-20T10:18:04;1.63;;;0.90;;
16922;SDS011;8578;50.938;13.556;2023-12-20T10:20:33;0.97;;;0.60;;
16922;SDS011;8578;50.938;13.556;2023-12-20T10:23:02;2.17;;;0.90;;
16922;SDS011;8578;50.938;13.556;2023-12-20T10:25:30;1.50;;;0.93;;
16922;SDS011;8578;50.938;13.556;2023-12-20T10:28:08;3.50;;;0.87;;
16922;SDS011;8578;50.938;13.556;2023-12-20T10:30:36;4.03;;;1.10;;
16922;SDS011;8578;50.938;13.556;2023-12-20T10:33:05;3.83;;;0.97;;
16922;SDS011;8578;50.938;13.556;2023-12-20T10:35:32;1.93;;;0.93;;
16922;SDS011;8578;50.938;13.556;2023-12-20T10:38:03;4.10;;;1.00;;
16922;SDS011;8578;50.938;13.556;2023-12-20T10:40:32;1.60;;;1.03;;
16922;SDS011;8578;50.938;13.556;2023-12-20T10:43:03;3.33;;;1.00;;
16922;SDS011;8578;50.938;13.556;2023-12-20T10:45:31;2.13;;;1.10;;
16922;SDS011;8578;50.938;13.556;2023-12-20T10:47:58;2.67;;;1.00;;
16922;SDS011;8578;50.938;13.556;2023-12-20T10:50:28;3.07;;;0.97;;
16922;SDS011;8578;50.938;13.556;2023-12-20T10:52:56;3.90;;;1.00;;
16922;SDS011;8578;50.938;13.556;2023-12-20T10:55:26;1.50;;;0.90;;
16922;SDS011;8578;50.938;13.556;2023-12-20T10:57:54;0.90;;;0.60;;
16922;SDS011;8578;50.938;13.556;2023-12-20T11:00:25;2.70;;;1.10;;
16922;SDS011;8578;50.938;13.556;2023-12-20T11:02:53;2.37;;;1.00;;
16922;SDS011;8578;50.938;13.556;2023-12-20T11:05:24;1.10;;;0.77;;
16922;SDS011;8578;50.938;13.556;2023-12-20T11:07:55;2.20;;;0.80;;
16922;SDS011;8578;50.938;13.556;2023-12-20T11:10:31;4.27;;;0.90;;
16922;SDS011;8578;50.938;13.556;2023-12-20T11:13:02;2.83;;;1.00;;
16922;SDS011;8578;50.938;13.556;2023-12-20T11:15:38;3.43;;;0.87;;
16922;SDS011;8578;50.938;13.556;2023-12-20T11:18:07;1.70;;;0.70;;
16922;SDS011;8578;50.938;13.556;2023-12-20T11:20:37;3.00;;;1.33;;
16922;SDS011;8578;50.938;13.556;2023-12-20T11:23:06;2.70;;;0.67;;
16922;SDS011;8578;50.938;13.556;2023-12-20T11:25:51;3.10;;;0.93;;
16922;SDS011;8578;50.938;13.556;2023-12-20T11:28:20;2.73;;;0.90;;
16922;SDS011;8578;50.938;13.556;2023-12-20T11:30:50;2.63;;;1.30;;
16922;SDS011;8578;50.938;13.556;2023-12-20T11:33:21;1.40;;;0.73;;
16922;SDS011;8578;50.938;13.556;2023-12-20T11:35:51;7.07;;;0.87;;
16922;SDS011;8578;50.938;13.556;2023-12-20T11:38:19;1.70;;;0.83;;
16922;SDS011;8578;50.938;13.556;2023-12-20T11:40:47;1.20;;;0.67;;
16922;SDS011;8578;50.938;13.556;2023-12-20T11:43:26;0.70;;;0.60;;
16922;SDS011;8578;50.938;13.556;2023-12-20T11:45:56;2.13;;;0.83;;
16922;SDS011;8578;50.938;13.556;2023-12-20T11:48:29;2.17;;;1.00;;
16922;SDS011;8578;50.938;13.556;2023-12-20T11:50:57;1.23;;;0.83;;
16922;SDS011;8578;50.938;13.556;2023-12-20T11:53:24;2.33;;;0.70;;
16922;SDS011;8578;50.938;13.556;2023-12-20T11:55:53;2.17;;;1.00;;
16922;SDS011;8578;50.938;13.556;2023-12-20T11:58:21;4.13;;;1.00;;
16922;SDS011;8578;50.938;13.556;2023-12-20T12:00:50;1.27;;;0.70;;
16922;SDS011;8578;50.938;13.556;2023-12-20T12:03:18;5.03;;;1.00;;
16922;SDS011;8578;50.938;13.556;2023-12-20T12:05:46;2.53;;;0.80;;
16922;SDS011;8578;50.938;13.556;2023-12-20T12:08:15;1.53;;;0.97;;
16922;SDS011;8578;50.938;13.556;2023-12-20T12:10:42;2.30;;;0.73;;
16922;SDS011;8578;50.938;13.556;2023-12-20T12:13:10;3.77;;;1.10;;
16922;SDS011;8578;50.938;13.556;2023-12-20T12:15:38;1.83;;;0.70;;
16922;SDS011;8578;50.938;13.556;2023-12-20T12:18:09;1.87;;;0.70;;
16922;SDS011;8578;50.938;13.556;2023-12-20T12:20:38;3.43;;;0.70;;
16922;SDS011;8578;50.938;13.556;2023-12-20T12:23:05;1.60;;;1.50;;
16922;SDS011;8578;50.938;13.556;2023-12-20T12:25:34;3.93;;;1.10;;
16922;SDS011;8578;50.938;13.556;2023-12-20T12:28:08;2.63;;;0.90;;
16922;SDS011;8578;50.938;13.556;2023-12-20T12:30:36;1.77;;;0.80;;
16922;SDS011;8578;50.938;13.556;2023-12-20T12:33:17;2.33;;;0.57;;
16922;SDS011;8578;50.938;13.556;2023-12-20T12:35:44;3.20;;;0.90;;
16922;SDS011;8578;50.938;13.556;2023-12-20T12:38:14;1.53;;;0.90;;
16922;SDS011;8578;50.938;13.556;2023-12-20T12:40:42;3.80;;;0.93;;
16922;SDS011;8578;50.938;13.556;2023-12-20T12:43:11;2.17;;;0.80;;
16922;SDS011;8578;50.938;13.556;2023-12-20T12:45:40;2.67;;;0.93;;
16922;SDS011;8578;50.938;13.556;2023-12-20T12:48:08;3.87;;;1.00;;
16922;SDS011;8578;50.938;13.556;2023-12-20T12:50:37;2.20;;;0.90;;
16922;SDS011;8578;50.938;13.556;2023-12-20T12:53:05;4.43;;;1.13;;
16922;SDS011;8578;50.938;13.556;2023-12-20T12:55:34;3.43;;;0.70;;
16922;SDS011;8578;50.938;13.556;2023-12-20T12:58:01;3.23;;;1.20;;
16922;SDS011;8578;50.938;13.556;2023-12-20T13:00:29;6.30;;;0.87;;
16922;SDS011;8578;50.938;13.556;2023-12-20T13:02:56;2.90;;;0.90;;
16922;SDS011;8578;50.938;13.556;2023-12-20T13:05:25;2.03;;;0.93;;
16922;SDS011;8578;50.938;13.556;2023-12-20T13:07:54;1.63;;;0.70;;
16922;SDS011;8578;50.938;13.556;2023-12-20T13:10:22;0.87;;;0.67;;
16922;SDS011;8578;50.938;13.556;2023-12-20T13:12:50;5.13;;;0.90;;
16922;SDS011;8578;50.938;13.556;2023-12-20T13:15:19;1.83;;;0.77;;
16922;SDS011;8578;50.938;13.556;2023-12-20T13:17:46;3.40;;;1.00;;
16922;SDS011;8578;50.938;13.556;2023-12-20T13:20:14;4.60;;;1.43;;
16922;SDS011;8578;50.938;13.556;2023-12-20T13:22:42;2.47;;;0.83;;
16922;SDS011;8578;50.938;13.556;2023-12-20T13:25:11;2.83;;;0.77;;
16922;SDS011;8578;50.938;13.556;2023-12-20T13:27:38;6.13;;;0.97;;
16922;SDS011;8578;50.938;13.556;2023-12-20T13:30:06;2.83;;;0.50;;
16922;SDS011;8578;50.938;13.556;2023-12-20T13:32:35;5.73;;;0.83;;
16922;SDS011;8578;50.938;13.556;2023-12-20T13:35:03;2.40;;;1.10;;
16922;SDS011;8578;50.938;13.556;2023-12-20T13:37:32;1.30;;;0.80;;
16922;SDS011;8578;50.938;13.556;2023-12-20T13:39:59;1.80;;;0.83;;
16922;SDS011;8578;50.938;13.556;2023-12-20T13:42:29;2.53;;;0.87;;
16922;SDS011;8578;50.938;13.556;2023-12-20T13:44:57;3.60;;;0.90;;
16922;SDS011;8578;50.938;13.556;2023-12-20T13:47:25;1.80;;;0.93;;
16922;SDS011;8578;50.938;13.556;2023-12-20T13:49:52;4.50;;;1.10;;
16922;SDS011;8578;50.938;13.556;2023-12-20T13:52:20;1.73;;;0.70;;
16922;SDS011;8578;50.938;13.556;2023-12-20T13:54:47;2.53;;;0.83;;
16922;SDS011;8578;50.938;13.556;2023-12-20T13:57:15;2.33;;;1.20;;
16922;SDS011;8578;50.938;13.556;2023-12-20T13:59:48;3.67;;;0.73;;
16922;SDS011;8578;50.938;13.556;2023-12-20T14:02:16;3.53;;;0.83;;
16922;SDS011;8578;50.938;13.556;2023-12-20T14:04:46;2.10;;;0.87;;
16922;SDS011;8578;50.938;13.556;2023-12-20T14:07:14;1.93;;;0.70;;
16922;SDS011;8578;50.938;13.556;2023-12-20T14:09:42;4.03;;;1.37;;
16922;SDS011;8578;50.938;13.556;2023-12-20T14:12:13;2.20;;;0.63;;
16922;SDS011;8578;50.938;13.556;2023-12-20T14:14:40;1.77;;;1.00;;
16922;SDS011;8578;50.938;13.556;2023-12-20T14:17:09;1.70;;;0.60;;
16922;SDS011;8578;50.938;13.556;2023-12-20T14:19:37;2.80;;;0.90;;
16922;SDS011;8578;50.938;13.556;2023-12-20T14:22:06;2.60;;;0.60;;
16922;SDS011;8578;50.938;13.556;2023-12-20T14:24:35;1.17;;;0.70;;
16922;SDS011;8578;50.938;13.556;2023-12-20T14:27:03;2.00;;;0.50;;
16922;SDS011;8578;50.938;13.556;2023-12-20T14:29:30;2.93;;;0.70;;
16922;SDS011;8578;50.938;13.556;2023-12-20T14:32:00;3.27;;;0.87;;
16922;SDS011;8578;50.938;13.556;2023-12-20T14:34:30;3.43;;;0.80;;
16922;SDS011;8578;50.938;13.556;2023-12-20T14:36:58;3.50;;;1.10;;
16922;SDS011;8578;50.938;13.556;2023-12-20T14:39:26;2.30;;;0.70;;
16922;SDS011;8578;50.938;13.556;2023-12-20T14:41:54;1.60;;;0.50;;
16922;SDS011;8578;50.938;13.556;2023-12-20T14:44:22;1.40;;;0.63;;
16922;SDS011;8578;50.938;13.556;2023-12-20T14:46:50;1.40;;;0.60;;
16922;SDS011;8578;50.938;13.556;2023-12-20T14:49:19;1.90;;;0.73;;
16922;SDS011;8578;50.938;13.556;2023-12-20T14:51:47;3.07;;;0.73;;
16922;SDS011;8578;50.938;13.556;2023-12-20T14:54:15;2.93;;;0.80;;
16922;SDS011;8578;50.938;13.556;2023-12-20T14:56:43;1.00;;;0.60;;
16922;SDS011;8578;50.938;13.556;2023-12-20T14:59:11;1.20;;;0.50;;
16922;SDS011;8578;50.938;13.556;2023-12-20T15:01:38;1.27;;;0.70;;
16922;SDS011;8578;50.938;13.556;2023-12-20T15:07:22;0.70;;;0.50;;
16922;SDS011;8578;50.938;13.556;2023-12-20T15:09:49;2.00;;;0.80;;
16922;SDS011;8578;50.938;13.556;2023-12-20T15:12:17;0.40;;;0.30;;
16922;SDS011;8578;50.938;13.556;2023-12-20T15:14:45;1.47;;;0.50;;
16922;SDS011;8578;50.938;13.556;2023-12-20T15:17:13;1.97;;;0.60;;
16922;SDS011;8578;50.938;13.556;2023-12-20T15:19:42;1.50;;;0.80;;
16922;SDS011;8578;50.938;13.556;2023-12-20T15:22:10;2.00;;;0.80;;
16922;SDS011;8578;50.938;13.556;2023-12-20T15:24:40;2.53;;;0.90;;
16922;SDS011;8578;50.938;13.556;2023-12-20T15:27:08;3.03;;;0.67;;
16922;SDS011;8578;50.938;13.556;2023-12-20T15:29:37;2.30;;;0.97;;
16922;SDS011;8578;50.938;13.556;2023-12-20T15:32:05;1.20;;;0.63;;
16922;SDS011;8578;50.938;13.556;2023-12-20T15:34:34;0.67;;;0.50;;
16922;SDS011;8578;50.938;13.556;2023-12-20T15:37:01;1.60;;;0.67;;
16922;SDS011;8578;50.938;13.556;2023-12-20T15:39:29;3.43;;;0.60;;
16922;SDS011;8578;50.938;13.556;2023-12-20T15:41:58;1.17;;;0.70;;
16922;SDS011;8578;50.938;13.556;2023-12-20T15:44:25;2.00;;;0.73;;
16922;SDS011;8578;50.938;13.556;2023-12-20T15:46:53;2.00;;;0.70;;
16922;SDS011;8578;50.938;13.556;2023-12-20T15:49:20;1.87;;;0.63;;
16922;SDS011;8578;50.938;13.556;2023-12-20T15:51:48;1.63;;;0.60;;
16922;SDS011;8578;50.938;13.556;2023-12-20T15:54:16;2.63;;;0.70;;
16922;SDS011;8578;50.938;13.556;2023-12-20T15:56:44;2.63;;;0.70;;
16922;SDS011;8578;50.938;13.556;2023-12-20T15:59:16;1.53;;;0.73;;
16922;SDS011;8578;50.938;13.556;2023-12-20T16:01:43;1.13;;;0.50;;
16922;SDS011;8578;50.938;13.556;2023-12-20T16:04:20;2.80;;;1.07;;
16922;SDS011;8578;50.938;13.556;2023-12-20T16:06:47;3.40;;;0.73;;
16922;SDS011;8578;50.938;13.556;2023-12-20T16:09:15;2.40;;;0.97;;
16922;SDS011;8578;50.938;13.556;2023-12-20T16:11:42;1.23;;;0.60;;
16922;SDS011;8578;50.938;13.556;2023-12-20T16:14:10;1.33;;;0.70;;
16922;SDS011;8578;50.938;13.556;2023-12-20T16:16:45;3.23;;;0.80;;
16922;SDS011;8578;50.938;13.556;2023-12-20T16:19:13;1.37;;;0.70;;
16922;SDS011;8578;50.938;13.556;2023-12-20T16:21:43;0.60;;;0.60;;
16922;SDS011;8578;50.938;13.556;2023-12-20T16:24:10;2.03;;;1.00;;
16922;SDS011;8578;50.938;13.556;2023-12-20T16:26:38;2.40;;;0.80;;
16922;SDS011;8578;50.938;13.556;2023-12-20T16:29:06;2.10;;;0.70;;
16922;SDS011;8578;50.938;13.556;2023-12-20T16:31:34;1.73;;;0.67;;
16922;SDS011;8578;50.938;13.556;2023-12-20T16:34:03;3.77;;;1.00;;
16922;SDS011;8578;50.938;13.556;2023-12-20T16:36:47;2.70;;;0.83;;
16922;SDS011;8578;50.938;13.556;2023-12-20T16:39:16;2.37;;;0.70;;
16922;SDS011;8578;50.938;13.556;2023-12-20T16:41:47;0.40;;;0.40;;
16922;SDS011;8578;50.938;13.556;2023-12-20T16:44:14;1.03;;;0.40;;
16922;SDS011;8578;50.938;13.556;2023-12-20T16:46:45;0.40;;;0.40;;
16922;SDS011;8578;50.938;13.556;2023-12-20T16:49:13;4.23;;;0.87;;
16922;SDS011;8578;50.938;13.556;2023-12-20T16:51:41;3.53;;;0.70;;
16922;SDS011;8578;50.938;13.556;2023-12-20T16:54:11;1.70;;;0.50;;
16922;SDS011;8578;50.938;13.556;2023-12-20T16:56:39;2.83;;;0.60;;
16922;SDS011;8578;50.938;13.556;2023-12-20T16:59:08;1.57;;;0.70;;
16922;SDS011;8578;50.938;13.556;2023-12-20T17:01:36;1.70;;;0.80;;
16922;SDS011;8578;50.938;13.556;2023-12-20T17:04:04;1.67;;;0.80;;
16922;SDS011;8578;50.938;13.556;2023-12-20T17:06:33;3.57;;;1.00;;
16922;SDS011;8578;50.938;13.556;2023-12-20T17:09:00;1.63;;;0.90;;
16922;SDS011;8578;50.938;13.556;2023-12-20T17:11:29;1.97;;;1.10;;
16922;SDS011;8578;50.938;13.556;2023-12-20T17:13:56;2.07;;;1.10;;
16922;SDS011;8578;50.938;13.556;2023-12-20T17:16:25;2.77;;;0.80;;
16922;SDS011;8578;50.938;13.556;2023-12-20T17:18:53;1.23;;;0.90;;
16922;SDS011;8578;50.938;13.556;2023-12-20T17:21:21;2.47;;;0.93;;
16922;SDS011;8578;50.938;13.556;2023-12-20T17:23:50;3.87;;;1.10;;
16922;SDS011;8578;50.938;13.556;2023-12-20T17:26:18;1.83;;;0.47;;
16922;SDS011;8578;50.938;13.556;2023-12-20T17:28:46;1.50;;;1.00;;
16922;SDS011;8578;50.938;13.556;2023-12-20T17:31:15;2.03;;;0.77;;
16922;SDS011;8578;50.938;13.556;2023-12-20T17:33:43;1.27;;;0.60;;
16922;SDS011;8578;50.938;13.556;2023-12-20T17:36:11;4.00;;;1.20;;
16922;SDS011;8578;50.938;13.556;2023-12-20T17:38:41;3.23;;;1.07;;
16922;SDS011;8578;50.938;13.556;2023-12-20T17:41:13;2.73;;;0.87;;
16922;SDS011;8578;50.938;13.556;2023-12-20T17:43:42;4.83;;;1.23;;
16922;SDS011;8578;50.938;13.556;2023-12-20T17:46:10;3.07;;;0.90;;
16922;SDS011;8578;50.938;13.556;2023-12-20T17:48:38;2.20;;;1.10;;
16922;SDS011;8578;50.938;13.556;2023-12-20T17:51:05;2.80;;;0.83;;
16922;SDS011;8578;50.938;13.556;2023-12-20T17:53:33;5.80;;;1.30;;
16922;SDS011;8578;50.938;13.556;2023-12-20T17:56:00;3.30;;;0.97;;
16922;SDS011;8578;50.938;13.556;2023-12-20T17:58:30;1.73;;;0.80;;
16922;SDS011;8578;50.938;13.556;2023-12-20T18:00:59;2.43;;;0.90;;
16922;SDS011;8578;50.938;13.556;2023-12-20T18:03:26;3.43;;;1.40;;
16922;SDS011;8578;50.938;13.556;2023-12-20T18:05:55;2.30;;;1.00;;
16922;SDS011;8578;50.938;13.556;2023-12-20T18:08:23;2.57;;;1.23;;
16922;SDS011;8578;50.938;13.556;2023-12-20T18:10:51;2.03;;;1.13;;
16922;SDS011;8578;50.938;13.556;2023-12-20T18:13:18;4.20;;;1.20;;
16922;SDS011;8578;50.938;13.556;2023-12-20T18:15:47;2.67;;;1.47;;